Latest Weather Observations for Sydney Airport

IDN60901

Issued at 6:21 am EST Wednesday 29 June 2016 (issued every 10 minutes, with the page automatically refreshed every 10 minutes)

About weather observations | Map of Sydney area stations | Latest observations for Sydney area | Other Formats
Station Details ID: 066037 Name: SYDNEY AIRPORT AMO Lat: -33.95 Lon: 151.17 Height: 6.0 m
Data from the previous 72 hours. | See also: Recent months at Sydney Airport
Date/Time
EST
Temp
°C
App
Temp
°C
Dew
Point
°C
Rel
Hum
%
Delta-T
°C
Wind Press
QNH
hPa
Press
MSL
hPa
Rain since
9am
mm
Dir  Spd
km/h
Gust
km/h
Spd
kts
Gust
kts
29/06:00am 8.4 3.6 2.4 66 2.5 NW 17 20 9 11 1027.1 1027.1 0.2
29/05:30am 8.2 4.5 2.1 65 2.5 NNW 11 15 6 8 1026.9 1026.9 0.2
29/05:00am 8.2 4.1 2.4 67 2.4 NW 13 17 7 9 1026.6 1026.6 0.2
29/04:30am 7.8 2.6 2.5 69 2.2 WNW 19 24 10 13 1026.5 1026.5 0.2
29/04:00am 7.8 3.0 2.5 69 2.2 NW 17 22 9 12 1026.4 1026.4 0.2
29/03:30am 7.9 3.8 2.3 68 2.3 NW 13 17 7 9 1026.4 1026.4 0.2
29/03:00am 7.6 3.5 2.5 70 2.1 NW 13 17 7 9 1026.6 1026.6 0.2
29/02:30am 7.7 3.2 2.4 69 2.2 NW 15 17 8 9 1026.6 1026.6 0.2
29/02:00am 8.0 3.5 2.4 68 2.3 NW 15 17 8 9 1026.5 1026.5 0.2
29/01:30am 8.0 3.5 2.4 68 2.3 NW 15 19 8 10 1026.6 1026.6 0.2
29/01:00am 8.0 3.5 2.4 68 2.3 NNW 15 19 8 10 1026.7 1026.7 0.2
29/12:30am 8.5 2.7 2.5 66 2.5 W 22 30 12 16 1026.9 1026.9 0.2
29/12:00am 9.9 2.6 2.3 59 3.2 WSW 30 35 16 19 1026.9 1026.9 0.2
 
Date/Time
EST
Temp
°C
App
Temp
°C
Dew
Point
°C
Rel
Hum
%
Delta-T
°C
Wind Press
QNH
hPa
Press
MSL
hPa
Rain since
9am
mm
Dir  Spd
km/h
Gust
km/h
Spd
kts
Gust
kts
28/11:30pm 9.9 2.9 2.0 58 3.3 WSW 28 35 15 19 1026.9 1026.9 0.2
28/11:00pm 9.9 2.9 2.0 58 3.3 W 28 35 15 19 1026.9 1026.9 0.2
28/10:30pm 10.4 3.8 1.8 55 3.6 W 26 32 14 17 1026.9 1026.9 0.2
28/10:00pm 10.5 4.3 2.2 56 3.5 WSW 24 33 13 18 1026.8 1026.8 0.2
28/09:30pm 10.7 3.7 2.2 55 3.6 WSW 28 33 15 18 1026.9 1026.9 0.2
28/09:00pm 11.0 3.7 2.3 55 3.7 WSW 30 35 16 19 1026.7 1026.7 0.2
28/08:30pm 11.4 5.2 2.2 53 3.9 WSW 24 30 13 16 1026.5 1026.5 0.2
28/08:00pm 11.7 6.6 3.2 56 3.7 W 19 22 10 12 1026.4 1026.4 0.2
28/07:30pm 12.1 6.9 2.6 52 4.1 W 19 22 10 12 1026.0 1026.0 0.2
28/07:00pm 12.5 8.5 2.6 51 4.3 W 13 17 7 9 1025.9 1025.9 0.2
28/06:30pm 12.8 8.4 2.7 50 4.4 W 15 22 8 12 1025.4 1025.4 0.2
28/06:00pm 13.3 9.3 2.8 49 4.6 W 13 17 7 9 1025.1 1025.1 0.2
28/05:30pm 13.1 9.7 5.8 61 3.4 SSW 13 17 7 9 1024.6 1024.6 0.2
28/05:00pm 13.9 10.1 5.8 58 3.8 SSW 15 17 8 9 1024.3 1024.3 0.2
28/04:30pm 14.3 9.7 5.6 56 4.1 SSW 19 22 10 12 1024.0 1024.0 0.2
28/04:00pm 14.6 9.8 5.7 55 4.2 S 20 26 11 14 1023.8 1023.8 0.2
28/03:30pm 14.8 9.8 4.7 51 4.7 S 20 26 11 14 1023.4 1023.4 0.2
28/03:00pm 15.0 10.2 5.7 53 4.4 S 20 26 11 14 1023.1 1023.1 0.2
28/02:30pm 15.1 9.9 3.7 46 5.2 S 20 28 11 15 1022.8 1022.8 0.2
28/02:00pm 15.1 9.1 3.4 45 5.3 SW 24 32 13 17 1022.7 1022.7 0.2
28/01:30pm 15.2 9.1 2.9 43 5.5 SSW 24 32 13 17 1022.7 1022.7 0.2
28/01:18pm 15.1 8.4 3.4 45 5.3 SSW 28 46 15 25 1022.7 1022.7 0.2
28/01:00pm 15.2 8.4 3.2 44 5.4 SW 28 32 15 17 1022.7 1022.7 0.2
28/12:30pm 14.9 8.9 3.1 45 5.3 SW 24 32 13 17 1022.7 1022.7 0.2
28/12:00pm 14.8 9.1 2.9 44 5.3 WSW 22 32 12 17 1022.8 1022.8 0.0
28/11:30am 14.3 6.9 1.9 43 5.4 WSW 30 39 16 21 1023.0 1023.0 0.0
28/11:06am 13.8 5.9 2.1 45 5.1 WSW 33 52 18 28 1023.3 1023.3 0.0
28/11:00am 13.8 6.0 1.4 43 5.3 WSW 32 43 17 23 1023.4 1023.4 0.0
28/10:30am 12.9 5.9 1.7 46 4.8 WSW 28 35 15 19 1023.4 1023.4 0.0
28/10:00am 12.0 4.1 1.3 48 4.5 WSW 32 39 17 21 1023.4 1023.4 0.0
28/09:30am 11.5 3.5 0.6 47 4.5 WSW 32 41 17 22 1022.9 1022.9 0.0
28/09:00am 10.9 2.9 0.3 48 4.3 WSW 32 39 17 21 1022.6 1022.6 2.2
28/08:30am 10.0 1.8 0.3 51 3.9 WSW 33 41 18 22 1022.3 1022.3 2.2
28/08:00am 9.2 1.2 0.5 54 3.5 W 32 39 17 21 1022.0 1022.0 2.2
28/07:30am 8.9 0.7 0.4 55 3.4 W 33 39 18 21 1021.5 1021.5 2.2
28/07:00am 8.8 0.8 0.6 56 3.3 W 32 39 17 21 1021.2 1021.2 2.2
28/06:30am 8.9 0.3 0.4 55 3.4 WSW 35 43 19 23 1020.5 1020.5 2.2
28/06:18am 8.9 -0.1 0.4 55 3.4 WSW 37 56 20 30 1020.3 1020.3 2.2
28/06:00am 8.9 0.3 0.4 55 3.4 WSW 35 48 19 26 1019.9 1019.9 2.2
28/05:30am 9.0 0.4 0.2 54 3.5 WSW 35 46 19 25 1019.5 1019.5 2.2
28/05:00am 8.9 0.3 0.4 55 3.4 WSW 35 46 19 25 1018.9 1018.9 2.2
28/04:30am 8.9 0.9 0.7 56 3.3 WSW 32 41 17 22 1018.9 1018.9 2.2
28/04:00am 8.9 0.8 0.7 56 3.3 WSW 33 39 18 21 1018.5 1018.5 2.2
28/03:30am 8.9 0.8 1.0 57 3.2 W 33 41 18 22 1018.1 1018.1 2.2
28/03:00am 8.8 -0.1 0.9 57 3.2 W 37 44 20 24 1017.9 1017.9 2.2
28/02:30am 9.0 0.5 0.8 56 3.3 W 35 41 19 22 1017.8 1017.8 2.2
28/02:00am 9.2 0.7 0.8 55 3.4 W 35 43 19 23 1017.3 1017.3 2.2
28/01:30am 9.4 1.5 0.8 55 3.5 W 32 37 17 20 1017.4 1017.4 2.2
28/01:00am 9.6 0.3 0.7 54 3.6 WSW 39 46 21 25 1017.4 1017.4 2.2
28/12:30am 9.5 1.0 1.2 56 3.4 WSW 35 50 19 27 1017.5 1017.5 2.2
28/12:00am 9.7 0.9 1.5 56 3.4 W 37 46 20 25 1017.4 1017.4 2.2
 
Date/Time
EST
Temp
°C
App
Temp
°C
Dew
Point
°C
Rel
Hum
%
Delta-T
°C
Wind Press
QNH
hPa
Press
MSL
hPa
Rain since
9am
mm
Dir  Spd
km/h
Gust
km/h
Spd
kts
Gust
kts
27/11:30pm 9.9 1.6 2.0 58 3.3 W 35 43 19 23 1017.5 1017.5 2.2
27/11:00pm 10.0 2.4 2.7 60 3.1 WSW 32 39 17 21 1017.4 1017.4 2.2
27/10:30pm 10.0 2.7 2.7 60 3.1 WSW 30 37 16 20 1017.2 1017.2 2.2
27/10:00pm 9.7 3.0 3.5 65 2.7 WSW 28 33 15 18 1016.9 1016.9 2.2
27/09:40pm 9.6 2.9 3.9 67 2.5 WSW 28 46 15 25 1016.7 1016.7 2.2
27/09:30pm 9.6 2.9 3.6 66 2.6 WSW 28 35 15 19 1016.7 1016.7 2.2
27/09:13pm 9.5 2.9 4.0 68 2.4 WSW 28 48 15 26 1016.7 1016.7 2.2
27/09:00pm 9.1 2.7 5.1 76 1.8 WSW 28 33 15 18 1016.6 1016.6 2.0
27/08:30pm 9.2 3.2 5.2 76 1.8 WSW 26 32 14 17 1016.4 1016.4 1.4
27/08:00pm 9.9 3.4 4.8 70 2.3 W 28 35 15 19 1016.1 1016.1 0.6
27/07:30pm 10.2 3.7 4.9 69 2.4 W 28 33 15 18 1016.0 1016.0 0.6
27/07:00pm 10.4 4.5 5.6 72 2.2 W 26 32 14 17 1015.8 1015.8 0.6
27/06:30pm 10.9 5.5 6.2 73 2.2 W 24 30 13 16 1015.5 1015.5 0.6
27/06:00pm 10.5 6.0 6.9 78 1.7 W 20 28 11 15 1015.2 1015.2 0.6
27/05:30pm 10.3 5.9 7.4 82 1.4 W 20 26 11 14 1015.0 1015.0 0.6
27/05:00pm 10.4 6.2 7.5 82 1.4 W 19 28 10 15 1014.7 1014.7 0.6
27/04:30pm 10.3 6.0 6.9 79 1.6 SW 19 35 10 19 1014.5 1014.5 0.6
27/04:00pm 10.9 6.2 5.9 71 2.3 SW 20 28 11 15 1014.2 1014.2 0.4
27/03:30pm 11.1 6.0 6.2 72 2.3 SW 22 26 12 14 1013.9 1013.9 0.2
27/03:00pm 11.1 6.6 7.1 76 1.9 SW 20 28 11 15 1013.6 1013.6 0.2
27/02:30pm 11.0 6.7 7.0 76 1.9 W 19 26 10 14 1013.3 1013.3 0.0
27/02:00pm 11.3 6.6 5.9 69 2.5 W 20 28 11 15 1013.0 1013.0 0.0
27/01:30pm 10.9 6.5 6.4 74 2.1 W 19 26 10 14 1013.0 1013.0 0.0
27/01:00pm 10.8 6.7 6.1 73 2.2 W 17 26 9 14 1013.3 1013.3 0.0
27/12:30pm 10.4 5.9 6.3 76 1.9 WNW 19 22 10 12 1013.5 1013.5 0.0
27/12:00pm 9.7 5.5 5.8 77 1.8 WNW 17 19 9 10 1013.9 1013.9 0.0
27/11:30am 9.5 4.8 6.0 79 1.6 W 20 28 11 15 1014.4 1014.4 0.0
27/11:00am 10.1 4.4 5.0 70 2.3 W 24 30 13 16 1014.6 1014.6 0.0
27/10:30am 9.9 3.8 4.8 70 2.3 W 26 35 14 19 1014.7 1014.7 0.0
27/10:00am 9.7 3.2 4.5 70 2.3 W 28 33 15 18 1015.1 1015.1 0.0
27/09:30am 9.3 2.8 4.8 73 2.0 WNW 28 35 15 19 1015.3 1015.3 0.0
27/09:00am 9.3 2.7 4.3 71 2.2 WNW 28 37 15 20 1015.5 1015.5 0.0
27/08:30am 9.6 2.7 4.4 70 2.3 WNW 30 37 16 20 1015.3 1015.3 0.0
27/08:00am 10.1 4.2 4.0 66 2.7 W 24 30 13 16 1015.1 1015.1 0.0
27/07:30am 9.3 3.7 3.5 67 2.5 WSW 22 35 12 19 1014.9 1014.9 0.0
27/07:00am 9.4 4.8 3.9 68 2.4 WSW 17 28 9 15 1015.1 1015.1 0.0
27/06:30am 9.8 4.8 4.6 70 2.3 WNW 20 30 11 16 1015.1 1015.1 0.0
27/06:00am 9.6 5.1 4.4 70 2.3 NW 17 20 9 11 1014.7 1014.7 0.0
27/05:30am 9.6 5.1 4.2 69 2.4 NW 17 22 9 12 1014.6 1014.6 0.0
27/05:00am 9.6 5.0 3.6 66 2.6 NNW 17 22 9 12 1014.6 1014.6 0.0
27/04:30am 9.7 5.5 3.7 66 2.6 NW 15 19 8 10 1014.3 1014.3 0.0
27/04:00am 9.1 4.5 3.8 69 2.3 NW 17 19 9 10 1014.2 1014.2 0.0
27/03:30am 9.4 4.4 3.4 66 2.6 N 19 26 10 14 1014.5 1014.5 0.0
27/03:00am 9.3 5.9 4.1 70 2.3 WNW 11 15 6 8 1014.3 1014.3 0.0
27/02:30am 9.5 5.6 3.5 66 2.6 NW 13 15 7 8 1014.7 1014.7 0.0
27/02:00am 9.7 5.8 3.5 65 2.7 NW 13 15 7 8 1015.0 1015.0 0.0
27/01:30am 9.7 6.2 3.5 65 2.7 NW 11 13 6 7 1015.3 1015.3 0.0
27/01:00am 10.1 6.2 3.2 62 3.0 NW 13 15 7 8 1015.1 1015.1 0.0
27/12:30am 10.7 6.8 3.4 60 3.2 NNW 13 15 7 8 1015.7 1015.7 0.0
27/12:00am 10.3 6.8 3.7 63 2.9 N 11 13 6 7 1015.7 1015.7 0.0
 
Date/Time
EST
Temp
°C
App
Temp
°C
Dew
Point
°C
Rel
Hum
%
Delta-T
°C
Wind Press
QNH
hPa
Press
MSL
hPa
Rain since
9am
mm
Dir  Spd
km/h
Gust
km/h
Spd
kts
Gust
kts
26/11:30pm 11.0 7.4 2.9 57 3.5 NW 11 13 6 7 1015.6 1015.6 0.0
26/11:00pm 10.6 7.1 3.5 61 3.1 SW 11 13 6 7 1015.3 1015.3 0.0
26/10:30pm 11.5 8.8 2.4 53 3.9 W 6 11 3 6 1015.5 1015.5 0.0
26/10:00pm 11.6 8.8 2.3 53 4.0 NE 6 7 3 4 1015.7 1015.7 0.0
26/09:30pm 12.4 9.4 2.2 50 4.4 N 7 9 4 5 1016.3 1016.3 0.0
26/09:00pm 12.7 9.3 1.7 47 4.7 N 9 11 5 6 1016.8 1016.8 0.0
26/08:30pm 12.8 8.6 1.9 47 4.7 NNW 13 17 7 9 1017.4 1017.4 0.0
26/08:00pm 13.2 9.0 1.5 45 5.0 NNW 13 17 7 9 1017.5 1017.5 0.0
26/07:30pm 13.0 9.7 2.2 48 4.7 NNW 9 9 5 5 1016.8 1016.8 0.0
26/07:00pm 13.0 9.8 3.1 51 4.4 NW 9 11 5 6 1017.0 1017.0 0.0
26/06:30pm 12.9 9.9 1.7 46 4.8 WNW 7 9 4 5 1016.7 1016.7 0.0
26/06:00pm 13.1 9.8 2.3 48 4.7 WNW 9 11 5 6 1016.9 1016.9 0.0
26/05:30pm 12.7 9.9 3.2 52 4.2 W 7 11 4 6 1016.4 1016.4 0.0
26/05:00pm 13.6 10.6 1.8 44 5.1 WNW 7 9 4 5 1016.1 1016.1 0.0
26/04:30pm 13.5 10.5 2.0 45 5.0 WNW 7 11 4 6 1016.4 1016.4 0.0
26/04:00pm 14.0 10.9 1.5 42 5.4 W 7 9 4 5 1016.3 1016.3 0.0
26/03:30pm 14.7 10.5 1.6 41 5.7 NW 13 17 7 9 1017.2 1017.2 0.0
26/03:00pm 15.3 10.9 0.6 36 6.3 NW 13 15 7 8 1016.9 1016.9 0.0
26/02:30pm 14.9 10.0 -0.5 35 6.4 NW 15 26 8 14 1017.4 1017.4 0.0
26/02:00pm 15.4 11.4 0.7 37 6.3 NW 11 13 6 7 1017.3 1017.3 0.0
26/01:30pm 14.7 10.8 0.9 39 5.9 NW 11 17 6 9 1017.8 1017.8 0.0
26/01:00pm 15.1 10.8 0.9 38 6.1 NW 13 17 7 9 1018.1 1018.1 0.0
26/12:30pm 15.4 11.1 0.7 37 6.3 NW 13 17 7 9 1018.2 1018.2 0.0
26/12:00pm 13.9 9.6 1.0 41 5.5 NW 13 19 7 10 1018.9 1018.9 0.0
26/11:30am 13.9 9.2 0.6 40 5.6 NW 15 20 8 11 1019.6 1019.6 0.0
26/11:00am 13.3 8.6 0.7 42 5.3 NW 15 20 8 11 1020.2 1020.2 0.0
26/10:30am 12.0 6.8 0.0 43 4.9 NW 17 26 9 14 1020.7 1020.7 0.0
26/10:00am 10.7 5.1 -0.3 46 4.4 WNW 19 24 10 13 1021.0 1021.0 0.0
26/09:30am 9.5 3.7 -0.4 50 3.9 NW 20 26 11 14 1020.8 1020.8 0.0
26/09:00am 8.0 3.1 -0.2 56 3.2 NW 15 22 8 12 1020.9 1020.9 0.0
26/08:30am 7.7 2.9 0.0 58 3.0 NW 15 19 8 10 1020.8 1020.8 0.0
26/08:00am 7.0 1.8 0.0 61 2.7 NW 17 22 9 12 1021.1 1021.1 0.0
26/07:30am 6.7 1.5 0.0 62 2.6 NW 17 22 9 12 1020.9 1020.9 0.0
26/07:00am 6.6 0.8 -0.2 62 2.6 WNW 20 26 11 14 1020.9 1020.9 0.0
26/06:30am 6.6 0.8 -0.2 62 2.6 WNW 20 28 11 15 1020.6 1020.6 0.0

Latest Capital City Observations: Canberra | Sydney | Melbourne | Brisbane | Adelaide | Perth | Hobart | Darwin

Other Formats:

Comma delimited format used in spreadsheet applications
http://www.bom.gov.au/fwo/IDN60901/IDN60901.94767.axf

JavaScript Object Notation format (JSON) in row-major order
http://www.bom.gov.au/fwo/IDN60901/IDN60901.94767.json